Time;durP1;ratioP1;P1;durP2;ratioP2;P2;SDS_P1;SDS_P2;PMS_P1;PMS_P2;Temp;Humidity;BMP_temperature;BMP_pressure;BME280_temperature;BME280_humidity;BME280_pressure;Samples;Min_cycle;Max_cycle;Signal;HPM_P1;HPM_P2
2024/01/30 00:01:35;;;;;;;;;;;8.70;99.90;;;;;;4964686;28;19976;-70
2024/01/30 00:04:03;;;;;;;;;;;8.70;99.90;;;;;;4966472;28;20361;-70
2024/01/30 00:06:28;;;;;;;;;;;8.70;99.90;;;;;;4965194;28;20361;-70
2024/01/30 00:08:54;;;;;;;;;;;8.70;99.90;;;;;;4965121;28;19922;-70
2024/01/30 00:11:21;;;;;;;;;;;8.70;99.90;;;;;;4962933;28;20388;-70
2024/01/30 00:13:47;;;;;;;;;;;8.70;99.90;;;;;;4964641;28;19946;-71
2024/01/30 00:16:22;;;;;;;;;;;8.60;99.90;;;;;;4978197;28;19961;-70
2024/01/30 00:18:50;;;;;;;;;;;8.60;99.90;;;;;;4967915;28;19914;-70
2024/01/30 00:21:15;;;;;;;;;;;8.70;99.90;;;;;;4966491;28;20297;-70
2024/01/30 00:23:40;;;;;;;;;;;8.60;99.90;;;;;;4965121;28;19932;-70
2024/01/30 00:26:06;;;;;;;;;;;8.60;99.90;;;;;;4964062;28;19945;-70
2024/01/30 00:28:31;;;;;;;;;;;8.60;99.90;;;;;;4963690;28;20828;-70
2024/01/30 00:30:57;;;;;;;;;;;8.60;99.90;;;;;;4966075;28;19910;-70
2024/01/30 00:33:22;;;;;;;;;;;8.60;99.90;;;;;;4968779;28;20258;-70
2024/01/30 00:35:51;;;;;;;;;;;8.60;99.90;;;;;;4966992;28;19949;-70
2024/01/30 00:38:16;;;;;;;;;;;8.50;99.90;;;;;;4969340;28;19918;-71
2024/01/30 00:40:42;;;;;;;;;;;8.50;99.90;;;;;;4969494;28;19924;-70
2024/01/30 00:43:07;;;;;;;;;;;8.50;99.90;;;;;;4966323;28;19965;-70
2024/01/30 00:45:33;;;;;;;;;;;8.50;99.90;;;;;;4926679;23;1338764;-70
2024/01/30 00:48:01;;;;;;;;;;;8.50;99.90;;;;;;4964038;28;19923;-70
2024/01/30 00:50:26;;;;;;;;;;;8.40;99.90;;;;;;4962838;28;19925;-70
2024/01/30 00:52:52;;;;;;;;;;;8.40;99.90;;;;;;4955893;28;20481;-70
2024/01/30 00:55:17;;;;;;;;;;;8.40;99.90;;;;;;4966669;28;19926;-71
2024/01/30 00:57:43;;;;;;;;;;;8.40;99.90;;;;;;4968506;28;20303;-70
2024/01/30 01:00:09;;;;;;;;;;;8.30;99.90;;;;;;4961395;28;19961;-70
2024/01/30 01:02:35;;;;;;;;;;;8.30;99.90;;;;;;4959635;28;19922;-70
2024/01/30 01:05:00;;;;;;;;;;;8.30;99.90;;;;;;4962939;28;19965;-70
2024/01/30 01:07:26;;;;;;;;;;;8.30;99.90;;;;;;4963369;28;20020;-70
2024/01/30 01:09:51;;;;;;;;;;;8.30;99.90;;;;;;4960942;28;19945;-70
2024/01/30 01:12:17;;;;;;;;;;;8.30;99.90;;;;;;4964440;28;20631;-70
2024/01/30 01:14:42;;;;;;;;;;;8.30;99.90;;;;;;4960597;28;19919;-70
2024/01/30 01:17:08;;;;;;;;;;;8.30;99.90;;;;;;4962600;28;19918;-70
2024/01/30 01:19:33;;;;;;;;;;;8.30;99.90;;;;;;4961686;28;20413;-70
2024/01/30 01:21:59;;;;;;;;;;;8.30;99.90;;;;;;4976900;28;19922;-70
2024/01/30 01:24:26;;;;;;;;;;;8.30;99.90;;;;;;4960688;28;20533;-70
2024/01/30 01:26:52;;;;;;;;;;;8.20;99.90;;;;;;4967440;28;19945;-70
2024/01/30 01:29:20;;;;;;;;;;;8.20;99.90;;;;;;4965717;28;19968;-70
2024/01/30 01:31:46;;;;;;;;;;;8.20;99.90;;;;;;4964556;28;19929;-70
2024/01/30 01:34:14;;;;;;;;;;;8.20;99.90;;;;;;4965468;28;19922;-70
2024/01/30 01:36:39;;;;;;;;;;;8.20;99.90;;;;;;4964862;28;19937;-70
2024/01/30 01:39:05;;;;;;;;;;;8.10;99.90;;;;;;4962934;28;20581;-70
2024/01/30 01:41:31;;;;;;;;;;;8.10;99.90;;;;;;4963866;28;19953;-71
2024/01/30 01:43:59;;;;;;;;;;;8.10;99.90;;;;;;4963072;28;19922;-72
2024/01/30 01:46:29;;;;;;;;;;;8.10;99.90;;;;;;4964918;28;19926;-70
2024/01/30 01:48:55;;;;;;;;;;;8.10;99.90;;;;;;4977829;28;20084;-70
2024/01/30 01:51:21;;;;;;;;;;;8.10;99.90;;;;;;4965389;28;19997;-70
2024/01/30 01:53:47;;;;;;;;;;;8.10;99.90;;;;;;4966876;28;19918;-70
2024/01/30 01:56:13;;;;;;;;;;;8.00;99.90;;;;;;4962835;28;19923;-70
2024/01/30 01:58:41;;;;;;;;;;;8.00;99.90;;;;;;4958351;28;20055;-70
2024/01/30 02:01:07;;;;;;;;;;;8.00;99.90;;;;;;4960087;28;19962;-70
2024/01/30 02:03:33;;;;;;;;;;;8.00;99.90;;;;;;4965700;28;20009;-70
2024/01/30 02:05:59;;;;;;;;;;;7.90;99.90;;;;;;4962681;28;20307;-70
2024/01/30 02:08:24;;;;;;;;;;;8.00;99.90;;;;;;4963474;28;19922;-70
2024/01/30 02:10:50;;;;;;;;;;;8.00;99.90;;;;;;4965768;28;19933;-70
2024/01/30 02:13:15;;;;;;;;;;;7.90;99.90;;;;;;4965409;28;19918;-70
2024/01/30 02:15:41;;;;;;;;;;;7.90;99.90;;;;;;4965199;28;19997;-70
2024/01/30 02:18:06;;;;;;;;;;;7.90;99.90;;;;;;4966298;28;20243;-70
2024/01/30 02:20:34;;;;;;;;;;;7.90;99.90;;;;;;4962345;28;19972;-70
2024/01/30 02:23:03;;;;;;;;;;;7.80;99.90;;;;;;4965809;28;19918;-71
2024/01/30 02:25:37;;;;;;;;;;;7.80;99.90;;;;;;4968270;28;19918;-70
2024/01/30 02:28:03;;;;;;;;;;;7.80;99.90;;;;;;4974153;28;20373;-70
2024/01/30 02:30:28;;;;;;;;;;;7.70;99.90;;;;;;4966500;28;19914;-70
2024/01/30 02:32:54;;;;;;;;;;;7.70;99.90;;;;;;4963520;28;19922;-70
2024/01/30 02:35:19;;;;;;;;;;;7.60;99.90;;;;;;4963192;28;19922;-70
2024/01/30 02:37:45;;;;;;;;;;;7.60;99.90;;;;;;4963351;28;19922;-70
2024/01/30 02:40:12;;;;;;;;;;;7.60;99.90;;;;;;4964027;28;19918;-70
2024/01/30 02:42:38;;;;;;;;;;;7.60;99.90;;;;;;4961144;28;20126;-69
2024/01/30 02:45:07;;;;;;;;;;;7.60;99.90;;;;;;4961110;28;19973;-70
2024/01/30 02:47:32;;;;;;;;;;;7.50;99.90;;;;;;4964451;28;19969;-70
2024/01/30 02:49:58;;;;;;;;;;;7.50;99.90;;;;;;4959200;28;20377;-70
2024/01/30 02:52:28;;;;;;;;;;;7.50;99.90;;;;;;4965858;28;19923;-70
2024/01/30 02:54:53;;;;;;;;;;;7.60;99.90;;;;;;4963818;28;20258;-71
2024/01/30 02:57:19;;;;;;;;;;;7.60;99.90;;;;;;4963932;28;19925;-70
2024/01/30 02:59:46;;;;;;;;;;;7.60;99.90;;;;;;4962418;28;20014;-70
2024/01/30 03:02:12;;;;;;;;;;;7.60;99.90;;;;;;4959508;28;19929;-70
2024/01/30 03:04:40;;;;;;;;;;;7.70;99.90;;;;;;4961741;28;19926;-70
2024/01/30 03:07:05;;;;;;;;;;;7.70;99.90;;;;;;4959502;28;19922;-70
2024/01/30 03:09:31;;;;;;;;;;;7.70;99.90;;;;;;4962565;28;19969;-70
2024/01/30 03:11:56;;;;;;;;;;;7.70;99.90;;;;;;4963121;28;19926;-70
2024/01/30 03:14:24;;;;;;;;;;;7.80;99.90;;;;;;4961199;28;20285;-70
2024/01/30 03:16:49;;;;;;;;;;;7.80;99.90;;;;;;4959403;28;21759;-70
2024/01/30 03:19:15;;;;;;;;;;;7.80;99.90;;;;;;4960383;28;19926;-72
2024/01/30 03:21:40;;;;;;;;;;;7.80;99.90;;;;;;4961705;28;19915;-70
2024/01/30 03:24:09;;;;;;;;;;;7.80;99.90;;;;;;4961538;28;19926;-70
2024/01/30 03:26:36;;;;;;;;;;;7.80;99.90;;;;;;4960126;28;20270;-70
2024/01/30 03:29:02;;;;;;;;;;;7.80;99.90;;;;;;4963905;28;20615;-70
2024/01/30 03:31:28;;;;;;;;;;;7.80;99.90;;;;;;4963474;28;19925;-70
2024/01/30 03:33:53;;;;;;;;;;;7.90;99.90;;;;;;4958281;28;19925;-70
2024/01/30 03:36:18;;;;;;;;;;;7.90;99.90;;;;;;4972750;28;19911;-70
2024/01/30 03:38:44;;;;;;;;;;;7.90;99.90;;;;;;4962198;28;19918;-70
2024/01/30 03:41:10;;;;;;;;;;;7.90;99.90;;;;;;4958354;28;20433;-70
2024/01/30 03:43:38;;;;;;;;;;;7.90;99.90;;;;;;4955996;28;19932;-70
2024/01/30 03:46:05;;;;;;;;;;;7.90;99.90;;;;;;4958113;28;19985;-70
2024/01/30 03:48:31;;;;;;;;;;;8.00;99.90;;;;;;4959440;28;20616;-71
2024/01/30 03:50:57;;;;;;;;;;;7.90;99.90;;;;;;4960965;28;19919;-70
2024/01/30 03:53:22;;;;;;;;;;;7.90;99.90;;;;;;4962162;28;19926;-70
2024/01/30 03:55:48;;;;;;;;;;;7.90;99.90;;;;;;4962978;28;19926;-70
2024/01/30 03:58:13;;;;;;;;;;;7.90;99.90;;;;;;4962344;28;20366;-70
2024/01/30 04:00:39;;;;;;;;;;;7.90;99.90;;;;;;4957728;28;19915;-70
2024/01/30 04:03:04;;;;;;;;;;;7.90;99.90;;;;;;4958493;28;19922;-70
2024/01/30 04:05:30;;;;;;;;;;;7.90;99.90;;;;;;4964723;28;20300;-70
2024/01/30 04:07:55;;;;;;;;;;;7.90;99.90;;;;;;4962744;28;19949;-70
2024/01/30 04:10:21;;;;;;;;;;;7.80;99.90;;;;;;4966775;28;19949;-70
2024/01/30 04:12:49;;;;;;;;;;;7.90;99.90;;;;;;4970719;28;19914;-70
2024/01/30 04:15:14;;;;;;;;;;;7.90;99.90;;;;;;4961920;28;19918;-70
2024/01/30 04:17:40;;;;;;;;;;;7.90;99.90;;;;;;4960472;28;19923;-70
2024/01/30 04:20:05;;;;;;;;;;;7.80;99.90;;;;;;4981902;28;19926;-70
2024/01/30 04:22:31;;;;;;;;;;;7.80;99.90;;;;;;4964583;28;19922;-70
2024/01/30 04:24:56;;;;;;;;;;;7.80;99.90;;;;;;4966711;28;20020;-70
2024/01/30 04:27:22;;;;;;;;;;;7.80;99.90;;;;;;4966397;28;20344;-70
2024/01/30 04:29:47;;;;;;;;;;;7.80;99.90;;;;;;4959531;28;19919;-70
2024/01/30 04:32:13;;;;;;;;;;;7.70;99.90;;;;;;4964685;28;19922;-70
2024/01/30 04:34:41;;;;;;;;;;;7.70;99.90;;;;;;4967564;28;20356;-70
2024/01/30 04:37:06;;;;;;;;;;;7.70;99.90;;;;;;4961428;28;20452;-71
2024/01/30 04:39:35;;;;;;;;;;;7.70;99.90;;;;;;4965569;28;19910;-70
2024/01/30 04:42:02;;;;;;;;;;;7.70;99.90;;;;;;4961396;28;19984;-70
2024/01/30 04:44:30;;;;;;;;;;;7.70;99.90;;;;;;4963389;28;20373;-70
2024/01/30 04:46:58;;;;;;;;;;;7.70;99.90;;;;;;4962698;28;20322;-70
2024/01/30 04:49:24;;;;;;;;;;;7.70;99.90;;;;;;4968801;28;19918;-70
2024/01/30 04:51:49;;;;;;;;;;;7.70;99.90;;;;;;4979919;28;19942;-71
2024/01/30 04:54:17;;;;;;;;;;;7.70;99.90;;;;;;4982933;28;19914;-70
2024/01/30 04:56:43;;;;;;;;;;;7.70;99.90;;;;;;4966063;28;19926;-70
2024/01/30 04:59:08;;;;;;;;;;;7.70;99.90;;;;;;4966696;28;19926;-70
2024/01/30 05:01:34;;;;;;;;;;;7.70;99.90;;;;;;4964808;28;19922;-70
2024/01/30 05:04:00;;;;;;;;;;;7.70;99.90;;;;;;4965503;28;20043;-70
2024/01/30 05:06:28;;;;;;;;;;;7.60;99.90;;;;;;4962276;28;19921;-70
2024/01/30 05:08:53;;;;;;;;;;;7.60;99.90;;;;;;4962356;28;19926;-70
2024/01/30 05:11:19;;;;;;;;;;;7.60;99.90;;;;;;4963065;28;19918;-70
2024/01/30 05:13:47;;;;;;;;;;;7.60;99.90;;;;;;4960831;28;21488;-70
2024/01/30 05:16:13;;;;;;;;;;;7.60;99.90;;;;;;4965940;28;19926;-70
2024/01/30 05:18:38;;;;;;;;;;;7.60;99.90;;;;;;4962468;28;20361;-70
2024/01/30 05:21:04;;;;;;;;;;;7.60;99.90;;;;;;4961883;28;19986;-70
2024/01/30 05:23:29;;;;;;;;;;;7.60;99.90;;;;;;4959253;28;20449;-70
2024/01/30 05:25:55;;;;;;;;;;;7.60;99.90;;;;;;4963262;28;20356;-70
2024/01/30 05:28:20;;;;;;;;;;;7.60;99.90;;;;;;4963054;28;19929;-70
2024/01/30 05:30:46;;;;;;;;;;;7.60;99.90;;;;;;4963431;28;19968;-70
2024/01/30 05:33:13;;;;;;;;;;;7.60;99.90;;;;;;4963224;28;19922;-70
2024/01/30 05:35:39;;;;;;;;;;;7.60;99.90;;;;;;4964358;28;19925;-70
2024/01/30 05:38:04;;;;;;;;;;;7.60;99.90;;;;;;4965020;28;19917;-70
2024/01/30 05:40:30;;;;;;;;;;;7.60;99.90;;;;;;4959524;28;19929;-70
2024/01/30 05:42:56;;;;;;;;;;;7.60;99.90;;;;;;4961564;28;20600;-69
2024/01/30 05:45:23;;;;;;;;;;;7.60;99.90;;;;;;4961695;28;19951;-70
2024/01/30 05:47:48;;;;;;;;;;;7.50;99.90;;;;;;4961954;28;19946;-70
2024/01/30 05:50:14;;;;;;;;;;;7.50;99.90;;;;;;4963503;28;19923;-70
2024/01/30 05:52:40;;;;;;;;;;;7.50;99.90;;;;;;4962953;28;19997;-70
2024/01/30 05:55:05;;;;;;;;;;;7.50;99.90;;;;;;4964141;28;20103;-70
2024/01/30 05:57:31;;;;;;;;;;;7.50;99.90;;;;;;4960590;28;20300;-70
2024/01/30 05:59:56;;;;;;;;;;;7.50;99.90;;;;;;4965000;28;20417;-70
2024/01/30 06:02:22;;;;;;;;;;;7.50;99.90;;;;;;4964270;28;19933;-70
2024/01/30 06:04:47;;;;;;;;;;;7.50;99.90;;;;;;4961509;28;19960;-70
2024/01/30 06:07:13;;;;;;;;;;;7.50;99.90;;;;;;4961773;28;19926;-70
2024/01/30 06:09:38;;;;;;;;;;;7.50;99.90;;;;;;4961580;28;19914;-70
2024/01/30 06:12:05;;;;;;;;;;;7.50;99.90;;;;;;4999607;28;19922;-70
2024/01/30 06:14:30;;;;;;;;;;;7.60;99.90;;;;;;4967313;28;19961;-70
2024/01/30 06:16:56;;;;;;;;;;;7.60;99.90;;;;;;4958739;28;19972;-70
2024/01/30 06:19:24;;;;;;;;;;;7.50;99.90;;;;;;4958808;28;19922;-70
2024/01/30 06:21:51;;;;;;;;;;;7.60;99.90;;;;;;4961401;28;19910;-70
2024/01/30 06:24:17;;;;;;;;;;;7.60;99.90;;;;;;4964476;28;19918;-70
2024/01/30 06:26:42;;;;;;;;;;;7.60;99.90;;;;;;4962144;28;19918;-70
2024/01/30 06:29:08;;;;;;;;;;;7.50;99.90;;;;;;4960853;28;20415;-70
2024/01/30 06:31:39;;;;;;;;;;;7.60;99.90;;;;;;4961899;28;20381;-70
2024/01/30 06:34:04;;;;;;;;;;;7.60;99.90;;;;;;4963873;28;19936;-70
2024/01/30 06:36:30;;;;;;;;;;;7.50;99.90;;;;;;4961821;28;20408;-70
2024/01/30 06:38:58;;;;;;;;;;;7.60;99.90;;;;;;4962089;28;19925;-70
2024/01/30 06:41:23;;;;;;;;;;;7.60;99.90;;;;;;4965773;28;19958;-72
2024/01/30 06:43:51;;;;;;;;;;;7.60;99.90;;;;;;4960210;28;19962;-72
2024/01/30 06:46:17;;;;;;;;;;;7.60;99.90;;;;;;4989411;23;20300;-73
2024/01/30 06:48:44;;;;;;;;;;;7.50;99.90;;;;;;5007331;28;19917;-72
2024/01/30 06:51:10;;;;;;;;;;;7.50;99.90;;;;;;5015915;28;19917;-72
2024/01/30 06:53:36;;;;;;;;;;;7.60;99.90;;;;;;5002170;28;19933;-72
2024/01/30 06:56:01;;;;;;;;;;;7.60;99.90;;;;;;4998876;28;19941;-72
2024/01/30 06:58:27;;;;;;;;;;;7.60;99.90;;;;;;5002281;28;19975;-72
2024/01/30 07:00:52;;;;;;;;;;;7.60;99.90;;;;;;5015748;28;20368;-72
2024/01/30 07:03:18;;;;;;;;;;;7.60;99.90;;;;;;5007644;28;19992;-72
2024/01/30 07:05:43;;;;;;;;;;;7.60;99.90;;;;;;5000851;28;19924;-72
2024/01/30 07:08:09;;;;;;;;;;;7.60;99.90;;;;;;5001992;28;19921;-72
2024/01/30 07:10:34;;;;;;;;;;;7.60;99.90;;;;;;5002184;28;19918;-70
2024/01/30 07:13:05;;;;;;;;;;;7.60;99.90;;;;;;5008094;28;20410;-70
2024/01/30 07:15:30;;;;;;;;;;;7.60;99.90;;;;;;5004775;28;19945;-72
2024/01/30 07:17:55;;;;;;;;;;;7.70;99.90;;;;;;5003157;28;19922;-72
2024/01/30 07:20:23;;;;;;;;;;;7.70;99.90;;;;;;5002224;28;20290;-72
2024/01/30 07:22:49;;;;;;;;;;;7.70;99.90;;;;;;4999987;28;20510;-72
2024/01/30 07:25:15;;;;;;;;;;;7.60;99.90;;;;;;5017608;28;19921;-72
2024/01/30 07:27:40;;;;;;;;;;;7.60;99.90;;;;;;5004025;28;19972;-72
2024/01/30 07:30:08;;;;;;;;;;;7.60;99.90;;;;;;5004542;28;20606;-72
2024/01/30 07:32:34;;;;;;;;;;;7.60;99.90;;;;;;5005359;28;19975;-72
2024/01/30 07:34:59;;;;;;;;;;;7.60;99.90;;;;;;5003672;28;19926;-72
2024/01/30 07:37:25;;;;;;;;;;;7.60;99.90;;;;;;5003559;28;19929;-72
2024/01/30 07:39:53;;;;;;;;;;;7.60;99.90;;;;;;5002869;28;19913;-70
2024/01/30 07:42:18;;;;;;;;;;;7.60;99.90;;;;;;5003161;28;20391;-70
2024/01/30 07:44:44;;;;;;;;;;;7.60;99.90;;;;;;5008432;28;19961;-70
2024/01/30 07:47:09;;;;;;;;;;;7.70;99.90;;;;;;5005564;28;20336;-70
2024/01/30 07:49:35;;;;;;;;;;;7.70;99.90;;;;;;5008018;28;19925;-70
2024/01/30 07:52:00;;;;;;;;;;;7.70;99.90;;;;;;5006203;28;19916;-70
2024/01/30 07:54:26;;;;;;;;;;;7.70;99.90;;;;;;5007090;28;19905;-70
2024/01/30 07:56:55;;;;;;;;;;;7.70;99.90;;;;;;5005958;28;19941;-72
2024/01/30 07:59:24;;;;;;;;;;;7.70;99.90;;;;;;5006731;28;20544;-72
2024/01/30 08:01:49;;;;;;;;;;;7.70;99.90;;;;;;5007018;28;20364;-70
2024/01/30 08:04:15;;;;;;;;;;;7.80;99.90;;;;;;5007214;28;19933;-70
2024/01/30 08:06:40;;;;;;;;;;;7.80;99.90;;;;;;5003617;28;19957;-70
2024/01/30 08:09:08;;;;;;;;;;;7.90;99.90;;;;;;5004459;28;19979;-70
2024/01/30 08:11:36;;;;;;;;;;;7.90;99.90;;;;;;5009778;28;19924;-70
2024/01/30 08:14:02;;;;;;;;;;;7.90;99.90;;;;;;5004310;28;19918;-70
2024/01/30 08:16:27;;;;;;;;;;;7.90;99.90;;;;;;5009786;28;19918;-70
2024/01/30 08:18:57;;;;;;;;;;;7.90;99.90;;;;;;5008500;28;19917;-70
2024/01/30 08:21:23;;;;;;;;;;;8.00;99.90;;;;;;5005475;28;19916;-70
2024/01/30 08:23:48;;;;;;;;;;;8.00;99.90;;;;;;5003244;28;20410;-70
2024/01/30 08:26:13;;;;;;;;;;;8.00;99.90;;;;;;5006946;28;19924;-70
2024/01/30 08:28:39;;;;;;;;;;;8.00;99.90;;;;;;5001818;28;19972;-70
2024/01/30 08:31:04;;;;;;;;;;;8.10;99.90;;;;;;5011827;28;19918;-70
2024/01/30 08:33:30;;;;;;;;;;;8.20;99.90;;;;;;5006851;28;19928;-70
2024/01/30 08:35:55;;;;;;;;;;;8.20;99.90;;;;;;5004970;28;19997;-70
2024/01/30 08:38:21;;;;;;;;;;;8.20;99.90;;;;;;5019988;28;19943;-70
2024/01/30 08:40:49;;;;;;;;;;;8.30;99.90;;;;;;5002618;28;19965;-70
2024/01/30 08:43:17;;;;;;;;;;;8.40;99.90;;;;;;5008268;28;19922;-72
2024/01/30 08:45:42;;;;;;;;;;;8.40;99.90;;;;;;5007903;28;20291;-72
2024/01/30 08:48:08;;;;;;;;;;;8.40;99.90;;;;;;5002741;28;19919;-71
2024/01/30 08:50:33;;;;;;;;;;;8.40;99.90;;;;;;5005175;28;19925;-70
2024/01/30 08:52:59;;;;;;;;;;;8.50;99.90;;;;;;5003598;28;20341;-70
2024/01/30 08:55:25;;;;;;;;;;;8.60;99.90;;;;;;5022136;28;20008;-70
2024/01/30 08:57:51;;;;;;;;;;;8.60;99.90;;;;;;5000016;28;19960;-70
2024/01/30 09:00:17;;;;;;;;;;;8.60;99.90;;;;;;5004159;28;19952;-70
2024/01/30 09:02:43;;;;;;;;;;;8.70;99.90;;;;;;5004835;28;20012;-70
2024/01/30 09:05:10;;;;;;;;;;;8.80;99.90;;;;;;5008130;28;19926;-70
2024/01/30 09:07:36;;;;;;;;;;;8.80;99.90;;;;;;5005249;28;20012;-71
2024/01/30 09:10:02;;;;;;;;;;;8.90;99.90;;;;;;5006513;28;20020;-71
2024/01/30 09:12:27;;;;;;;;;;;8.90;99.90;;;;;;5006618;28;19979;-70
2024/01/30 09:14:53;;;;;;;;;;;8.90;99.90;;;;;;5003004;28;20008;-70
2024/01/30 09:17:21;;;;;;;;;;;9.00;99.90;;;;;;5005622;28;19979;-70
2024/01/30 09:19:46;;;;;;;;;;;9.00;99.90;;;;;;5004996;28;19918;-71
2024/01/30 09:22:12;;;;;;;;;;;9.00;99.90;;;;;;5007073;28;20058;-71
2024/01/30 09:24:37;;;;;;;;;;;9.00;99.90;;;;;;5004099;28;19921;-71
2024/01/30 09:27:03;;;;;;;;;;;9.00;99.90;;;;;;5003519;28;19918;-71
2024/01/30 09:29:28;;;;;;;;;;;9.00;99.90;;;;;;4999837;28;19933;-71
2024/01/30 09:31:54;;;;;;;;;;;9.10;99.90;;;;;;5004551;28;20378;-71
2024/01/30 09:34:20;;;;;;;;;;;9.20;99.90;;;;;;5003842;28;19925;-71
2024/01/30 09:36:45;;;;;;;;;;;9.20;99.90;;;;;;5003048;28;19946;-71
2024/01/30 09:39:11;;;;;;;;;;;9.20;99.90;;;;;;5002460;28;19921;-71
2024/01/30 09:41:49;;;;;;;;;;;9.30;99.90;;;;;;5004935;28;19917;-71
2024/01/30 09:44:20;;;;;;;;;;;9.30;99.90;;;;;;5005074;28;19921;-71
2024/01/30 09:46:47;;;;;;;;;;;9.40;99.90;;;;;;4998862;28;20493;-71
2024/01/30 09:49:12;;;;;;;;;;;9.40;99.90;;;;;;5004640;28;20545;-71
2024/01/30 09:51:40;;;;;;;;;;;9.50;99.90;;;;;;5003510;28;19920;-71
2024/01/30 09:54:08;;;;;;;;;;;9.50;99.90;;;;;;5001092;28;19944;-71
2024/01/30 09:56:33;;;;;;;;;;;9.60;99.90;;;;;;5001130;28;20387;-71
2024/01/30 09:59:01;;;;;;;;;;;9.70;99.90;;;;;;5000620;28;19921;-71
2024/01/30 10:01:27;;;;;;;;;;;9.80;99.90;;;;;;5006887;28;19917;-72
2024/01/30 10:03:53;;;;;;;;;;;9.80;99.90;;;;;;5005446;28;19913;-71
2024/01/30 10:06:22;;;;;;;;;;;9.90;99.90;;;;;;5007222;28;19914;-71
2024/01/30 10:08:47;;;;;;;;;;;9.90;99.90;;;;;;5006535;28;20014;-74
2024/01/30 10:11:15;;;;;;;;;;;9.90;99.90;;;;;;4999954;28;20520;-71
2024/01/30 10:13:41;;;;;;;;;;;10.00;99.90;;;;;;5005713;28;19992;-71
2024/01/30 10:16:06;;;;;;;;;;;10.10;99.90;;;;;;5003932;28;20067;-71
2024/01/30 10:18:32;;;;;;;;;;;10.00;99.90;;;;;;5000367;28;19913;-71
2024/01/30 10:20:58;;;;;;;;;;;10.10;99.90;;;;;;5005251;28;19924;-71
2024/01/30 10:23:26;;;;;;;;;;;10.20;99.90;;;;;;5008166;28;19917;-71
2024/01/30 10:25:52;;;;;;;;;;;10.20;99.90;;;;;;5009405;28;20059;-71
2024/01/30 10:28:17;;;;;;;;;;;10.30;99.90;;;;;;5000201;28;20012;-71
2024/01/30 10:30:43;;;;;;;;;;;10.40;99.90;;;;;;5003577;28;19913;-71
2024/01/30 10:33:11;;;;;;;;;;;10.50;99.90;;;;;;5010671;28;19921;-71
2024/01/30 10:35:37;;;;;;;;;;;10.50;99.90;;;;;;5003281;28;19925;-71
2024/01/30 10:38:03;;;;;;;;;;;10.60;99.90;;;;;;5006194;28;19917;-71
2024/01/30 10:40:29;;;;;;;;;;;10.70;99.90;;;;;;5002555;28;19917;-71
2024/01/30 10:42:55;;;;;;;;;;;10.70;99.90;;;;;;5004718;28;19922;-71
2024/01/30 10:45:21;;;;;;;;;;;10.80;99.90;;;;;;5005689;28;19929;-71
2024/01/30 10:47:56;;;;;;;;;;;10.90;99.90;;;;;;5005518;28;19918;-71
2024/01/30 10:50:23;;;;;;;;;;;10.90;99.90;;;;;;5017281;28;19917;-71
2024/01/30 10:52:49;;;;;;;;;;;10.90;99.90;;;;;;5016357;28;20396;-71
2024/01/30 10:55:15;;;;;;;;;;;11.00;99.90;;;;;;5003937;28;19937;-71
2024/01/30 10:57:41;;;;;;;;;;;11.00;99.90;;;;;;4997663;28;19939;-71
2024/01/30 11:00:11;;;;;;;;;;;11.10;99.90;;;;;;5018230;28;20011;-71
2024/01/30 11:02:38;;;;;;;;;;;11.10;99.90;;;;;;4999670;28;19924;-71
2024/01/30 11:05:04;;;;;;;;;;;11.10;99.90;;;;;;4999715;28;20627;-71
2024/01/30 11:07:32;;;;;;;;;;;11.20;99.90;;;;;;5005513;28;19921;-71
2024/01/30 11:10:00;;;;;;;;;;;11.10;99.90;;;;;;5000562;28;19936;-71
2024/01/30 11:12:28;;;;;;;;;;;11.10;99.90;;;;;;5009185;28;19996;-71
2024/01/30 11:15:07;;;;;;;;;;;11.20;99.90;;;;;;4996950;28;20045;-71
2024/01/30 11:17:40;;;;;;;;;;;11.10;99.90;;;;;;4998280;28;20400;-71
2024/01/30 11:20:09;;;;;;;;;;;11.10;99.90;;;;;;4998563;28;19925;-71
2024/01/30 11:22:35;;;;;;;;;;;11.10;99.90;;;;;;5001340;28;19917;-73
2024/01/30 11:25:03;;;;;;;;;;;11.10;99.90;;;;;;5002355;28;19937;-71
2024/01/30 11:27:30;;;;;;;;;;;11.10;99.90;;;;;;5001469;28;21147;-71
2024/01/30 11:30:00;;;;;;;;;;;11.00;99.90;;;;;;5000964;28;20078;-72
2024/01/30 11:32:26;;;;;;;;;;;11.00;99.90;;;;;;4995148;28;19976;-72
2024/01/30 11:34:54;;;;;;;;;;;11.10;99.90;;;;;;5004734;28;19925;-71
2024/01/30 11:37:20;;;;;;;;;;;11.10;99.90;;;;;;5025587;28;19925;-72
2024/01/30 11:39:48;;;;;;;;;;;11.20;99.90;;;;;;5002414;28;19918;-72
2024/01/30 11:42:13;;;;;;;;;;;11.20;99.90;;;;;;5002207;28;19925;-71
2024/01/30 11:44:39;;;;;;;;;;;11.20;99.90;;;;;;5002097;28;20036;-71
2024/01/30 11:47:07;;;;;;;;;;;11.20;99.90;;;;;;4995605;28;20316;-72
2024/01/30 11:49:33;;;;;;;;;;;11.20;99.90;;;;;;5000637;28;19918;-71
2024/01/30 11:51:58;;;;;;;;;;;11.20;99.90;;;;;;4995929;28;19963;-71
2024/01/30 11:54:26;;;;;;;;;;;11.20;99.90;;;;;;5001460;28;19945;-71
2024/01/30 11:56:52;;;;;;;;;;;11.20;99.90;;;;;;4994564;28;19918;-71
2024/01/30 11:59:20;;;;;;;;;;;11.20;99.90;;;;;;5002720;28;19945;-71
2024/01/30 12:01:46;;;;;;;;;;;11.30;99.90;;;;;;5004879;28;19933;-72
2024/01/30 12:04:11;;;;;;;;;;;11.30;99.90;;;;;;5000793;28;19929;-72
2024/01/30 12:06:36;;;;;;;;;;;11.40;99.90;;;;;;4998650;28;19910;-72
2024/01/30 12:09:04;;;;;;;;;;;11.60;99.90;;;;;;5003488;28;19972;-72
2024/01/30 12:11:30;;;;;;;;;;;11.90;99.90;;;;;;5001897;28;20113;-72
2024/01/30 12:13:56;;;;;;;;;;;12.20;99.90;;;;;;5003017;28;20012;-72
2024/01/30 12:16:21;;;;;;;;;;;12.30;99.90;;;;;;5001121;28;19936;-72
2024/01/30 12:18:49;;;;;;;;;;;12.40;99.90;;;;;;5011743;28;19917;-72
2024/01/30 12:21:20;;;;;;;;;;;12.50;99.70;;;;;;5003883;28;19917;-72
2024/01/30 12:23:45;;;;;;;;;;;12.70;99.90;;;;;;4997045;28;19937;-72
2024/01/30 12:26:12;;;;;;;;;;;13.00;99.70;;;;;;5002747;28;19922;-72
2024/01/30 12:28:47;;;;;;;;;;;13.10;99.30;;;;;;5003734;28;19924;-72
2024/01/30 12:31:14;;;;;;;;;;;13.10;99.40;;;;;;4998070;28;20323;-72
2024/01/30 12:33:40;;;;;;;;;;;13.30;99.40;;;;;;4993310;28;20008;-72
2024/01/30 12:36:05;;;;;;;;;;;13.40;99.10;;;;;;5005161;28;20016;-72
2024/01/30 12:38:31;;;;;;;;;;;13.50;98.70;;;;;;5005108;28;20311;-72
2024/01/30 12:40:57;;;;;;;;;;;13.50;98.70;;;;;;5005786;28;19932;-72
2024/01/30 12:43:26;;;;;;;;;;;13.70;98.60;;;;;;5003858;28;20315;-72
2024/01/30 12:45:55;;;;;;;;;;;13.80;98.50;;;;;;4999721;23;20320;-72
2024/01/30 12:48:25;;;;;;;;;;;13.80;98.10;;;;;;4960272;28;20021;-72
2024/01/30 12:50:51;;;;;;;;;;;13.80;98.20;;;;;;4965634;28;20344;-72
2024/01/30 12:53:16;;;;;;;;;;;13.90;98.40;;;;;;4959390;28;19919;-72
2024/01/30 12:55:41;;;;;;;;;;;14.00;98.30;;;;;;4959064;28;20010;-72
2024/01/30 12:58:09;;;;;;;;;;;14.00;98.60;;;;;;4966818;28;20372;-72
2024/01/30 13:00:35;;;;;;;;;;;14.00;98.10;;;;;;4962147;28;19914;-72
2024/01/30 13:03:01;;;;;;;;;;;13.90;98.10;;;;;;4958278;28;19926;-72
2024/01/30 13:05:29;;;;;;;;;;;13.90;98.20;;;;;;4966524;28;19929;-72
2024/01/30 13:07:56;;;;;;;;;;;13.80;98.30;;;;;;4961215;28;20017;-72
2024/01/30 13:10:22;;;;;;;;;;;13.90;98.40;;;;;;4963070;28;19917;-72
2024/01/30 13:12:49;;;;;;;;;;;13.90;98.10;;;;;;4964210;28;19974;-72
2024/01/30 13:15:15;;;;;;;;;;;13.80;97.90;;;;;;4960300;28;19925;-72
2024/01/30 13:17:42;;;;;;;;;;;13.60;98.00;;;;;;4959306;28;19922;-72
2024/01/30 13:20:08;;;;;;;;;;;13.60;98.30;;;;;;4967844;28;19965;-72
2024/01/30 13:22:33;;;;;;;;;;;13.60;98.50;;;;;;4966997;28;20409;-72
2024/01/30 13:25:01;;;;;;;;;;;13.60;98.50;;;;;;4964363;28;19929;-72
2024/01/30 13:27:27;;;;;;;;;;;13.50;98.30;;;;;;4961702;28;19977;-72
2024/01/30 13:29:52;;;;;;;;;;;13.40;98.50;;;;;;4963785;28;19927;-72
2024/01/30 13:32:18;;;;;;;;;;;13.40;98.60;;;;;;4963891;28;19926;-71
2024/01/30 13:34:43;;;;;;;;;;;13.30;98.60;;;;;;4963272;28;20017;-72
2024/01/30 13:37:11;;;;;;;;;;;13.30;98.70;;;;;;4983195;28;20566;-72
2024/01/30 13:39:36;;;;;;;;;;;13.20;98.80;;;;;;4960426;28;19922;-72
2024/01/30 13:42:02;;;;;;;;;;;13.10;98.90;;;;;;4963131;28;20541;-72
2024/01/30 13:44:28;;;;;;;;;;;13.10;99.00;;;;;;4964612;28;19928;-72
2024/01/30 13:46:56;;;;;;;;;;;13.00;99.20;;;;;;4960780;28;19958;-72
2024/01/30 13:49:21;;;;;;;;;;;12.80;99.30;;;;;;4962566;28;19944;-71
2024/01/30 13:51:49;;;;;;;;;;;12.80;99.40;;;;;;4956098;28;20353;-71
2024/01/30 13:54:15;;;;;;;;;;;12.80;99.50;;;;;;4957790;28;20373;-71
2024/01/30 13:56:41;;;;;;;;;;;12.80;99.60;;;;;;4961188;28;19926;-71
2024/01/30 13:59:07;;;;;;;;;;;12.70;99.60;;;;;;4962246;28;20496;-71
2024/01/30 14:01:34;;;;;;;;;;;12.60;99.70;;;;;;4958306;28;19981;-71
2024/01/30 14:04:00;;;;;;;;;;;12.60;99.80;;;;;;4962003;28;19929;-71
2024/01/30 14:06:25;;;;;;;;;;;12.60;99.90;;;;;;4965778;28;20393;-71
2024/01/30 14:08:53;;;;;;;;;;;12.60;99.90;;;;;;4961284;28;19927;-71
2024/01/30 14:11:21;;;;;;;;;;;12.60;99.90;;;;;;4965025;28;19930;-72
2024/01/30 14:13:46;;;;;;;;;;;12.60;99.90;;;;;;4961434;28;19929;-72
2024/01/30 14:16:12;;;;;;;;;;;12.60;99.90;;;;;;4958840;28;19918;-71
2024/01/30 14:18:37;;;;;;;;;;;12.60;99.90;;;;;;4964535;28;20308;-71
2024/01/30 14:21:03;;;;;;;;;;;12.50;99.90;;;;;;4963212;28;20484;-71